createdAt,value
2022-08-05T00:00:46.265Z,0
2022-08-05T00:10:12.971Z,0
2022-08-05T00:19:55.420Z,0
2022-08-05T00:29:27.450Z,0
2022-08-05T00:39:04.874Z,0
2022-08-05T00:48:50.233Z,0
2022-08-05T00:58:19.374Z,0
2022-08-05T01:08:30.117Z,0
2022-08-05T01:17:39.837Z,0
2022-08-05T01:27:17.576Z,0
2022-08-05T01:36:47.762Z,0
2022-08-05T01:46:41.258Z,0
2022-08-05T01:56:04.381Z,0
2022-08-05T02:05:38.243Z,0
2022-08-05T02:24:52.377Z,0
2022-08-05T02:44:12.319Z,0
2022-08-05T02:53:44.628Z,0
2022-08-05T03:03:23.364Z,0
2022-08-05T03:22:37.009Z,0
2022-08-05T03:32:14.594Z,0
2022-08-05T03:41:52.599Z,5.63
2022-08-05T04:01:08.310Z,22.5
2022-08-05T04:10:46.576Z,33.75
2022-08-05T04:20:24.690Z,50.63
2022-08-05T04:39:41.182Z,78.75
2022-08-05T04:49:24.542Z,112.5
2022-08-05T04:58:58.065Z,168.75
2022-08-05T05:08:36.803Z,135
2022-08-05T05:18:14.771Z,101.25
2022-08-05T05:27:53.842Z,84.38
2022-08-05T05:47:13.395Z,61.88
2022-08-05T05:56:43.632Z,67.5
2022-08-05T06:16:27.852Z,95.63
2022-08-05T06:26:00.272Z,208.13
2022-08-05T06:35:22.037Z,264.38
2022-08-05T06:44:54.338Z,230.63
2022-08-05T06:54:31.402Z,264.38
2022-08-05T07:04:10.315Z,388.13
2022-08-05T07:13:57.369Z,348.75
2022-08-05T07:23:29.199Z,281.25
2022-08-05T07:33:09.156Z,427.5
2022-08-05T07:42:45.888Z,506.25
2022-08-05T07:52:26.388Z,483.75
2022-08-05T08:02:03.324Z,365.63
2022-08-05T08:11:47.715Z,371.25
2022-08-05T08:30:59.489Z,528.75
2022-08-05T08:50:30.072Z,427.5
2022-08-05T08:59:52.711Z,433.13
2022-08-05T09:09:32.426Z,540
2022-08-05T09:19:12.032Z,736.88
2022-08-05T09:28:51.572Z,804.38
2022-08-05T09:38:30.042Z,781.88
2022-08-05T09:48:18.650Z,939.38
2022-08-05T09:57:58.803Z,506.25
2022-08-05T10:07:50.566Z,2362.5
2022-08-05T10:17:38.157Z,2671.88
2022-08-05T10:27:05.548Z,3161.25
2022-08-05T10:36:44.107Z,1170
2022-08-05T10:46:13.122Z,2728.13
2022-08-05T10:56:03.211Z,3088.13
2022-08-05T11:05:37.038Z,2458.13
2022-08-05T11:15:12.045Z,2446.88
2022-08-05T11:25:16.368Z,4224.38
2022-08-05T11:44:21.671Z,3661.88
2022-08-05T11:53:48.382Z,1681.88
2022-08-05T12:03:24.197Z,804.38
2022-08-05T12:51:22.044Z,1023.75
2022-08-05T13:01:59.543Z,945
2022-08-05T13:10:30.144Z,421.88
2022-08-05T13:20:06.328Z,956.25
2022-08-05T13:29:59.755Z,1614.38
2022-08-05T13:40:14.704Z,2154.38
2022-08-05T13:49:13.010Z,1023.75
2022-08-05T13:58:44.745Z,1462.5
2022-08-05T14:08:43.116Z,2739.38
2022-08-05T14:18:05.882Z,2632.5
2022-08-05T14:27:47.287Z,2761.88
2022-08-05T14:37:20.809Z,1018.13
2022-08-05T14:46:56.664Z,883.13
2022-08-05T15:06:28.055Z,2373.75
2022-08-05T15:15:56.549Z,742.5
2022-08-05T15:25:23.374Z,506.25
2022-08-05T15:34:52.760Z,466.88
2022-08-05T15:44:28.234Z,556.88
2022-08-05T15:54:08.352Z,562.5
2022-08-05T16:03:41.592Z,579.38
2022-08-05T16:13:19.414Z,472.5
2022-08-05T16:32:29.635Z,236.25
2022-08-05T16:51:42.453Z,151.88
2022-08-05T17:01:15.130Z,39.38
2022-08-05T17:10:51.113Z,61.88
2022-08-05T17:20:27.573Z,45
2022-08-05T17:58:53.659Z,16.88
2022-08-05T18:18:10.806Z,16.88
2022-08-05T18:27:51.920Z,11.25
2022-08-05T18:46:58.537Z,0
2022-08-05T18:56:36.730Z,0
2022-08-05T19:06:21.571Z,0
2022-08-05T19:15:56.986Z,0
2022-08-05T19:25:29.749Z,0
2022-08-05T19:35:05.798Z,0
2022-08-05T19:44:44.824Z,0
2022-08-05T19:54:22.904Z,0
2022-08-05T20:13:30.431Z,0
2022-08-05T20:32:45.267Z,0
2022-08-05T20:42:21.896Z,0
2022-08-05T20:51:55.978Z,0
2022-08-05T21:11:11.548Z,0
2022-08-05T21:20:47.870Z,0
2022-08-05T21:30:25.372Z,0
2022-08-05T21:40:02.891Z,0
2022-08-05T21:49:48.857Z,0
2022-08-05T21:59:22.774Z,0
2022-08-05T22:18:30.146Z,0
2022-08-05T22:28:10.150Z,0
2022-08-05T22:47:28.807Z,0
2022-08-05T22:56:57.592Z,0
2022-08-05T23:06:34.124Z,0
2022-08-05T23:16:11.176Z,0
2022-08-05T23:35:25.515Z,0
2022-08-05T23:45:02.868Z,0
